sensor_id;sensor_type;location;lat;lon;timestamp;temperature;humidity
39503;DHT22;26970;49.900;10.774;2023-06-10T00:00:51;16.90;99.90
39503;DHT22;26970;49.900;10.774;2023-06-10T00:03:16;17.80;99.90
39503;DHT22;26970;49.900;10.774;2023-06-10T00:05:45;19.00;99.90
39503;DHT22;26970;49.900;10.774;2023-06-10T00:10:40;17.10;99.90
39503;DHT22;26970;49.900;10.774;2023-06-10T00:13:06;17.40;99.90
39503;DHT22;26970;49.900;10.774;2023-06-10T00:15:36;17.10;99.90
39503;DHT22;26970;49.900;10.774;2023-06-10T00:18:05;19.70;99.90
39503;DHT22;26970;49.900;10.774;2023-06-10T00:23:04;17.10;99.90
39503;DHT22;26970;49.900;10.774;2023-06-10T00:25:32;16.00;99.90
39503;DHT22;26970;49.900;10.774;2023-06-10T00:27:58;16.50;99.90
39503;DHT22;26970;49.900;10.774;2023-06-10T00:30:24;17.10;99.90
39503;DHT22;26970;49.900;10.774;2023-06-10T00:32:49;17.00;99.90
39503;DHT22;26970;49.900;10.774;2023-06-10T00:35:20;16.60;99.90
39503;DHT22;26970;49.900;10.774;2023-06-10T00:37:46;18.40;99.90
39503;DHT22;26970;49.900;10.774;2023-06-10T00:40:27;19.60;99.90
39503;DHT22;26970;49.900;10.774;2023-06-10T00:42:53;18.80;99.90
39503;DHT22;26970;49.900;10.774;2023-06-10T00:45:19;18.10;99.90
39503;DHT22;26970;49.900;10.774;2023-06-10T00:47:44;16.80;99.90
39503;DHT22;26970;49.900;10.774;2023-06-10T00:50:10;17.80;99.90
39503;DHT22;26970;49.900;10.774;2023-06-10T00:52:36;17.80;99.90
39503;DHT22;26970;49.900;10.774;2023-06-10T00:55:02;15.50;99.90
39503;DHT22;26970;49.900;10.774;2023-06-10T00:57:28;16.40;99.90
39503;DHT22;26970;49.900;10.774;2023-06-10T00:59:54;17.80;99.90
39503;DHT22;26970;49.900;10.774;2023-06-10T01:02:20;18.80;99.90
39503;DHT22;26970;49.900;10.774;2023-06-10T01:04:46;18.80;99.90
39503;DHT22;26970;49.900;10.774;2023-06-10T01:08:07;16.60;99.90
39503;DHT22;26970;49.900;10.774;2023-06-10T01:10:20;15.30;99.90
39503;DHT22;26970;49.900;10.774;2023-06-10T01:13:02;19.00;99.90
39503;DHT22;26970;49.900;10.774;2023-06-10T01:15:31;13.70;99.90
39503;DHT22;26970;49.900;10.774;2023-06-10T01:17:59;16.00;99.90
39503;DHT22;26970;49.900;10.774;2023-06-10T01:20:26;19.00;99.90
39503;DHT22;26970;49.900;10.774;2023-06-10T01:22:59;16.10;99.90
39503;DHT22;26970;49.900;10.774;2023-06-10T01:25:27;16.00;99.90
39503;DHT22;26970;49.900;10.774;2023-06-10T01:30:46;15.50;99.90
39503;DHT22;26970;49.900;10.774;2023-06-10T01:33:17;18.20;99.90
39503;DHT22;26970;49.900;10.774;2023-06-10T01:35:44;17.70;99.90
39503;DHT22;26970;49.900;10.774;2023-06-10T01:38:13;15.10;99.90
39503;DHT22;26970;49.900;10.774;2023-06-10T01:40:42;17.30;99.90
39503;DHT22;26970;49.900;10.774;2023-06-10T01:43:08;17.90;99.90
39503;DHT22;26970;49.900;10.774;2023-06-10T01:45:33;18.10;99.90
39503;DHT22;26970;49.900;10.774;2023-06-10T01:50:25;15.10;99.90
39503;DHT22;26970;49.900;10.774;2023-06-10T01:52:51;16.70;99.90
39503;DHT22;26970;49.900;10.774;2023-06-10T01:55:16;16.10;99.90
39503;DHT22;26970;49.900;10.774;2023-06-10T01:57:42;15.20;99.90
39503;DHT22;26970;49.900;10.774;2023-06-10T02:00:08;17.30;99.90
39503;DHT22;26970;49.900;10.774;2023-06-10T02:02:34;15.20;99.90
39503;DHT22;26970;49.900;10.774;2023-06-10T02:05:00;15.20;99.90
39503;DHT22;26970;49.900;10.774;2023-06-10T02:07:25;18.10;99.90
39503;DHT22;26970;49.900;10.774;2023-06-10T02:12:17;15.30;99.90
39503;DHT22;26970;49.900;10.774;2023-06-10T02:14:42;15.40;99.90
39503;DHT22;26970;49.900;10.774;2023-06-10T02:19:38;15.20;99.90
39503;DHT22;26970;49.900;10.774;2023-06-10T02:22:08;15.20;99.90
39503;DHT22;26970;49.900;10.774;2023-06-10T02:24:33;17.10;99.90
39503;DHT22;26970;49.900;10.774;2023-06-10T02:26:59;17.60;99.90
39503;DHT22;26970;49.900;10.774;2023-06-10T02:29:25;17.90;99.90
39503;DHT22;26970;49.900;10.774;2023-06-10T02:34:18;15.30;99.90
39503;DHT22;26970;49.900;10.774;2023-06-10T02:36:44;17.50;99.90
39503;DHT22;26970;49.900;10.774;2023-06-10T02:39:09;15.90;99.90
39503;DHT22;26970;49.900;10.774;2023-06-10T02:41:35;17.90;99.90
39503;DHT22;26970;49.900;10.774;2023-06-10T02:44:01;14.90;99.90
39503;DHT22;26970;49.900;10.774;2023-06-10T02:46:26;14.80;99.90
39503;DHT22;26970;49.900;10.774;2023-06-10T02:48:54;16.30;99.90
39503;DHT22;26970;49.900;10.774;2023-06-10T02:53:46;14.50;99.90
39503;DHT22;26970;49.900;10.774;2023-06-10T02:56:13;14.50;99.90
39503;DHT22;26970;49.900;10.774;2023-06-10T02:58:39;14.50;99.90
39503;DHT22;26970;49.900;10.774;2023-06-10T03:05:59;14.50;99.90
39503;DHT22;26970;49.900;10.774;2023-06-10T03:08:24;15.90;99.90
39503;DHT22;26970;49.900;10.774;2023-06-10T03:10:50;17.30;99.90
39503;DHT22;26970;49.900;10.774;2023-06-10T03:13:16;14.60;99.90
39503;DHT22;26970;49.900;10.774;2023-06-10T03:18:08;14.50;99.90
39503;DHT22;26970;49.900;10.774;2023-06-10T03:20:33;17.10;99.90
39503;DHT22;26970;49.900;10.774;2023-06-10T03:23:02;17.00;99.90
39503;DHT22;26970;49.900;10.774;2023-06-10T03:28:14;14.40;99.90
39503;DHT22;26970;49.900;10.774;2023-06-10T03:30:48;16.70;99.90
39503;DHT22;26970;49.900;10.774;2023-06-10T03:33:13;15.80;99.90
39503;DHT22;26970;49.900;10.774;2023-06-10T03:35:42;17.40;99.90
39503;DHT22;26970;49.900;10.774;2023-06-10T03:38:07;14.90;99.90
39503;DHT22;26970;49.900;10.774;2023-06-10T03:43:01;15.20;99.90
39503;DHT22;26970;49.900;10.774;2023-06-10T03:47:56;15.60;99.90
39503;DHT22;26970;49.900;10.774;2023-06-10T03:50:22;17.10;99.90
39503;DHT22;26970;49.900;10.774;2023-06-10T03:52:51;16.20;99.90
39503;DHT22;26970;49.900;10.774;2023-06-10T03:55:23;17.00;99.90
39503;DHT22;26970;49.900;10.774;2023-06-10T03:57:52;16.40;99.90
39503;DHT22;26970;49.900;10.774;2023-06-10T04:00:18;18.30;99.90
39503;DHT22;26970;49.900;10.774;2023-06-10T04:02:46;16.40;99.90
39503;DHT22;26970;49.900;10.774;2023-06-10T04:05:12;19.40;99.90
39503;DHT22;26970;49.900;10.774;2023-06-10T04:07:39;16.80;99.90
39503;DHT22;26970;49.900;10.774;2023-06-10T04:10:06;16.60;99.90
39503;DHT22;26970;49.900;10.774;2023-06-10T04:12:32;17.50;99.90
39503;DHT22;26970;49.900;10.774;2023-06-10T04:15:05;19.30;99.90
39503;DHT22;26970;49.900;10.774;2023-06-10T04:17:30;17.40;99.90
39503;DHT22;26970;49.900;10.774;2023-06-10T04:20:06;19.20;99.90
39503;DHT22;26970;49.900;10.774;2023-06-10T04:22:33;18.10;99.90
39503;DHT22;26970;49.900;10.774;2023-06-10T04:25:02;16.90;99.90
39503;DHT22;26970;49.900;10.774;2023-06-10T04:27:28;18.30;99.90
39503;DHT22;26970;49.900;10.774;2023-06-10T04:29:54;19.30;99.90
39503;DHT22;26970;49.900;10.774;2023-06-10T04:32:19;20.10;99.90
39503;DHT22;26970;49.900;10.774;2023-06-10T04:34:48;18.20;99.90
39503;DHT22;26970;49.900;10.774;2023-06-10T04:37:25;18.10;99.90
39503;DHT22;26970;49.900;10.774;2023-06-10T04:39:51;17.50;99.90
39503;DHT22;26970;49.900;10.774;2023-06-10T04:42:16;21.10;99.90
39503;DHT22;26970;49.900;10.774;2023-06-10T04:44:42;20.60;99.90
39503;DHT22;26970;49.900;10.774;2023-06-10T04:47:08;20.70;99.90
39503;DHT22;26970;49.900;10.774;2023-06-10T04:49:39;18.60;99.90
39503;DHT22;26970;49.900;10.774;2023-06-10T04:52:05;16.30;99.90
39503;DHT22;26970;49.900;10.774;2023-06-10T04:54:31;18.80;99.90
39503;DHT22;26970;49.900;10.774;2023-06-10T04:56:57;19.20;99.90
39503;DHT22;26970;49.900;10.774;2023-06-10T05:01:49;18.90;99.90
39503;DHT22;26970;49.900;10.774;2023-06-10T05:04:15;21.40;99.90
39503;DHT22;26970;49.900;10.774;2023-06-10T05:06:55;18.90;99.90
39503;DHT22;26970;49.900;10.774;2023-06-10T05:09:24;18.80;99.90
39503;DHT22;26970;49.900;10.774;2023-06-10T05:12:10;19.20;99.90
39503;DHT22;26970;49.900;10.774;2023-06-10T05:14:38;21.20;99.90
39503;DHT22;26970;49.900;10.774;2023-06-10T05:17:04;18.80;99.90
39503;DHT22;26970;49.900;10.774;2023-06-10T05:19:31;18.90;99.90
39503;DHT22;26970;49.900;10.774;2023-06-10T05:21:57;21.00;99.90
39503;DHT22;26970;49.900;10.774;2023-06-10T05:24:23;19.20;99.90
39503;DHT22;26970;49.900;10.774;2023-06-10T05:26:49;20.00;99.90
39503;DHT22;26970;49.900;10.774;2023-06-10T05:29:14;20.70;99.90
39503;DHT22;26970;49.900;10.774;2023-06-10T05:31:41;19.70;99.90
39503;DHT22;26970;49.900;10.774;2023-06-10T05:34:07;21.30;99.90
39503;DHT22;26970;49.900;10.774;2023-06-10T05:36:32;19.80;99.90
39503;DHT22;26970;49.900;10.774;2023-06-10T05:38:58;19.70;99.90
39503;DHT22;26970;49.900;10.774;2023-06-10T05:41:23;19.70;99.90
39503;DHT22;26970;49.900;10.774;2023-06-10T05:43:49;19.10;99.90
39503;DHT22;26970;49.900;10.774;2023-06-10T05:46:17;18.80;99.90
39503;DHT22;26970;49.900;10.774;2023-06-10T05:48:43;20.40;99.90
39503;DHT22;26970;49.900;10.774;2023-06-10T05:51:09;21.10;99.90
39503;DHT22;26970;49.900;10.774;2023-06-10T05:53:35;19.30;99.90
39503;DHT22;26970;49.900;10.774;2023-06-10T05:56:01;20.00;99.90
39503;DHT22;26970;49.900;10.774;2023-06-10T05:58:27;20.50;99.90
39503;DHT22;26970;49.900;10.774;2023-06-10T06:00:52;20.30;99.90
39503;DHT22;26970;49.900;10.774;2023-06-10T06:03:24;21.40;99.90
39503;DHT22;26970;49.900;10.774;2023-06-10T06:05:49;19.90;99.90
39503;DHT22;26970;49.900;10.774;2023-06-10T06:08:17;21.90;99.90
39503;DHT22;26970;49.900;10.774;2023-06-10T06:10:46;19.70;99.90
39503;DHT22;26970;49.900;10.774;2023-06-10T06:13:13;21.80;99.90
39503;DHT22;26970;49.900;10.774;2023-06-10T06:15:38;19.80;99.90
39503;DHT22;26970;49.900;10.774;2023-06-10T06:18:04;22.10;99.90
39503;DHT22;26970;49.900;10.774;2023-06-10T06:20:30;19.60;99.90
39503;DHT22;26970;49.900;10.774;2023-06-10T06:22:55;21.10;99.90
39503;DHT22;26970;49.900;10.774;2023-06-10T06:27:47;19.50;99.90
39503;DHT22;26970;49.900;10.774;2023-06-10T06:30:12;20.30;99.90
39503;DHT22;26970;49.900;10.774;2023-06-10T06:32:38;19.70;99.90
39503;DHT22;26970;49.900;10.774;2023-06-10T06:35:04;19.60;99.90
39503;DHT22;26970;49.900;10.774;2023-06-10T06:37:33;19.70;99.90
39503;DHT22;26970;49.900;10.774;2023-06-10T06:39:58;19.60;99.90
39503;DHT22;26970;49.900;10.774;2023-06-10T06:42:24;22.40;99.90
39503;DHT22;26970;49.900;10.774;2023-06-10T06:49:46;20.10;99.90
39503;DHT22;26970;49.900;10.774;2023-06-10T06:52:12;21.00;99.90
39503;DHT22;26970;49.900;10.774;2023-06-10T06:54:37;20.80;99.90
39503;DHT22;26970;49.900;10.774;2023-06-10T06:57:03;22.70;99.90
39503;DHT22;26970;49.900;10.774;2023-06-10T06:59:29;20.80;99.90
39503;DHT22;26970;49.900;10.774;2023-06-10T07:01:54;23.20;99.90
39503;DHT22;26970;49.900;10.774;2023-06-10T07:04:20;20.90;99.90
39503;DHT22;26970;49.900;10.774;2023-06-10T07:06:48;22.60;99.90
39503;DHT22;26970;49.900;10.774;2023-06-10T07:09:13;21.20;99.90
39503;DHT22;26970;49.900;10.774;2023-06-10T07:11:39;21.20;99.90
39503;DHT22;26970;49.900;10.774;2023-06-10T07:14:05;23.00;99.90
39503;DHT22;26970;49.900;10.774;2023-06-10T07:16:30;22.60;99.90
39503;DHT22;26970;49.900;10.774;2023-06-10T07:18:56;23.80;99.90
39503;DHT22;26970;49.900;10.774;2023-06-10T07:21:22;24.20;99.90
39503;DHT22;26970;49.900;10.774;2023-06-10T07:23:48;21.50;99.90
39503;DHT22;26970;49.900;10.774;2023-06-10T07:26:14;21.80;99.90
39503;DHT22;26970;49.900;10.774;2023-06-10T07:28:41;21.80;99.90
39503;DHT22;26970;49.900;10.774;2023-06-10T07:31:07;24.30;99.90
39503;DHT22;26970;49.900;10.774;2023-06-10T07:33:32;24.50;99.90
39503;DHT22;26970;49.900;10.774;2023-06-10T07:35:58;24.30;99.90
39503;DHT22;26970;49.900;10.774;2023-06-10T07:38:25;23.10;99.90
39503;DHT22;26970;49.900;10.774;2023-06-10T07:40:50;22.40;99.90
39503;DHT22;26970;49.900;10.774;2023-06-10T07:43:16;22.80;99.90
39503;DHT22;26970;49.900;10.774;2023-06-10T07:45:43;22.30;99.90
39503;DHT22;26970;49.900;10.774;2023-06-10T07:48:09;24.90;99.90
39503;DHT22;26970;49.900;10.774;2023-06-10T07:50:34;22.80;99.90
39503;DHT22;26970;49.900;10.774;2023-06-10T07:53:00;24.20;99.90
39503;DHT22;26970;49.900;10.774;2023-06-10T07:55:26;24.20;99.90
39503;DHT22;26970;49.900;10.774;2023-06-10T07:57:52;22.60;99.90
39503;DHT22;26970;49.900;10.774;2023-06-10T08:00:18;22.80;99.90
39503;DHT22;26970;49.900;10.774;2023-06-10T08:02:43;22.70;99.90
39503;DHT22;26970;49.900;10.774;2023-06-10T08:05:09;23.70;99.90
39503;DHT22;26970;49.900;10.774;2023-06-10T08:07:35;25.00;99.90
39503;DHT22;26970;49.900;10.774;2023-06-10T08:10:01;24.40;99.90
39503;DHT22;26970;49.900;10.774;2023-06-10T08:12:30;24.50;99.90
39503;DHT22;26970;49.900;10.774;2023-06-10T08:14:55;24.30;99.90
39503;DHT22;26970;49.900;10.774;2023-06-10T08:17:21;26.10;99.90
39503;DHT22;26970;49.900;10.774;2023-06-10T08:19:47;26.00;99.90
39503;DHT22;26970;49.900;10.774;2023-06-10T08:22:13;24.60;99.90
39503;DHT22;26970;49.900;10.774;2023-06-10T08:24:38;23.40;99.90
39503;DHT22;26970;49.900;10.774;2023-06-10T08:27:04;22.90;99.90
39503;DHT22;26970;49.900;10.774;2023-06-10T08:29:31;23.50;99.90
39503;DHT22;26970;49.900;10.774;2023-06-10T08:31:57;25.40;99.90
39503;DHT22;26970;49.900;10.774;2023-06-10T08:34:23;25.70;99.90
39503;DHT22;26970;49.900;10.774;2023-06-10T08:36:48;23.40;99.90
39503;DHT22;26970;49.900;10.774;2023-06-10T08:39:18;24.40;99.90
39503;DHT22;26970;49.900;10.774;2023-06-10T08:42:00;23.60;99.90
39503;DHT22;26970;49.900;10.774;2023-06-10T08:44:30;23.80;99.90
39503;DHT22;26970;49.900;10.774;2023-06-10T08:46:59;24.30;99.90
39503;DHT22;26970;49.900;10.774;2023-06-10T08:49:26;24.30;99.90
39503;DHT22;26970;49.900;10.774;2023-06-10T08:51:56;23.50;99.90
39503;DHT22;26970;49.900;10.774;2023-06-10T08:54:26;26.10;99.90
39503;DHT22;26970;49.900;10.774;2023-06-10T08:56:54;25.40;99.90
39503;DHT22;26970;49.900;10.774;2023-06-10T08:59:21;26.50;99.90
39503;DHT22;26970;49.900;10.774;2023-06-10T09:01:47;25.70;99.90
39503;DHT22;26970;49.900;10.774;2023-06-10T09:04:13;25.60;99.90
39503;DHT22;26970;49.900;10.774;2023-06-10T09:06:40;24.50;99.90
39503;DHT22;26970;49.900;10.774;2023-06-10T09:09:06;26.40;99.90
39503;DHT22;26970;49.900;10.774;2023-06-10T09:11:33;26.30;99.90
39503;DHT22;26970;49.900;10.774;2023-06-10T09:13:58;24.10;99.90
39503;DHT22;26970;49.900;10.774;2023-06-10T09:16:25;26.50;99.90
39503;DHT22;26970;49.900;10.774;2023-06-10T09:18:50;26.90;99.90
39503;DHT22;26970;49.900;10.774;2023-06-10T09:21:24;24.50;99.90
39503;DHT22;26970;49.900;10.774;2023-06-10T09:23:50;24.30;99.90
39503;DHT22;26970;49.900;10.774;2023-06-10T09:26:17;24.40;99.90
39503;DHT22;26970;49.900;10.774;2023-06-10T09:28:49;26.90;99.90
39503;DHT22;26970;49.900;10.774;2023-06-10T09:31:16;25.30;99.90
39503;DHT22;26970;49.900;10.774;2023-06-10T09:33:44;27.00;99.90
39503;DHT22;26970;49.900;10.774;2023-06-10T09:36:10;24.40;99.90
39503;DHT22;26970;49.900;10.774;2023-06-10T09:38:36;26.40;99.90
39503;DHT22;26970;49.900;10.774;2023-06-10T09:41:03;25.20;99.90
39503;DHT22;26970;49.900;10.774;2023-06-10T09:43:40;24.30;99.90
39503;DHT22;26970;49.900;10.774;2023-06-10T09:46:06;25.30;99.90
39503;DHT22;26970;49.900;10.774;2023-06-10T09:48:35;24.70;99.80
39503;DHT22;26970;49.900;10.774;2023-06-10T09:51:09;24.90;99.40
39503;DHT22;26970;49.900;10.774;2023-06-10T09:53:40;25.20;99.40
39503;DHT22;26970;49.900;10.774;2023-06-10T09:56:12;25.00;99.10
39503;DHT22;26970;49.900;10.774;2023-06-10T09:58:38;22.90;99.30
39503;DHT22;26970;49.900;10.774;2023-06-10T10:01:12;25.10;99.90
39503;DHT22;26970;49.900;10.774;2023-06-10T10:03:51;25.20;99.70
39503;DHT22;26970;49.900;10.774;2023-06-10T10:06:18;25.60;98.30
39503;DHT22;26970;49.900;10.774;2023-06-10T10:08:45;27.60;99.30
39503;DHT22;26970;49.900;10.774;2023-06-10T10:11:11;26.80;98.30
39503;DHT22;26970;49.900;10.774;2023-06-10T10:13:37;24.90;98.30
39503;DHT22;26970;49.900;10.774;2023-06-10T10:16:26;24.60;98.40
39503;DHT22;26970;49.900;10.774;2023-06-10T10:19:07;24.90;99.10
39503;DHT22;26970;49.900;10.774;2023-06-10T10:21:40;24.80;98.70
39503;DHT22;26970;49.900;10.774;2023-06-10T10:24:17;25.00;98.70
39503;DHT22;26970;49.900;10.774;2023-06-10T10:26:46;24.80;99.90
39503;DHT22;26970;49.900;10.774;2023-06-10T10:29:23;24.40;99.10
39503;DHT22;26970;49.900;10.774;2023-06-10T10:31:50;25.40;99.40
39503;DHT22;26970;49.900;10.774;2023-06-10T10:34:24;26.20;99.30
39503;DHT22;26970;49.900;10.774;2023-06-10T10:36:51;25.30;98.10
39503;DHT22;26970;49.900;10.774;2023-06-10T10:39:18;27.10;99.00
39503;DHT22;26970;49.900;10.774;2023-06-10T10:41:44;25.70;99.70
39503;DHT22;26970;49.900;10.774;2023-06-10T10:44:11;27.70;99.60
39503;DHT22;26970;49.900;10.774;2023-06-10T10:46:50;25.50;98.50
39503;DHT22;26970;49.900;10.774;2023-06-10T10:49:17;25.30;99.50
39503;DHT22;26970;49.900;10.774;2023-06-10T10:52:00;26.90;99.90
39503;DHT22;26970;49.900;10.774;2023-06-10T10:54:36;24.80;99.80
39503;DHT22;26970;49.900;10.774;2023-06-10T10:57:12;25.10;99.70
39503;DHT22;26970;49.900;10.774;2023-06-10T10:59:55;25.60;98.20
39503;DHT22;26970;49.900;10.774;2023-06-10T11:02:41;25.90;98.40
39503;DHT22;26970;49.900;10.774;2023-06-10T11:05:18;25.50;97.80
39503;DHT22;26970;49.900;10.774;2023-06-10T11:07:54;25.40;98.60
39503;DHT22;26970;49.900;10.774;2023-06-10T11:10:33;27.40;98.60
39503;DHT22;26970;49.900;10.774;2023-06-10T11:12:59;26.00;97.90
39503;DHT22;26970;49.900;10.774;2023-06-10T11:15:28;27.60;99.10
39503;DHT22;26970;49.900;10.774;2023-06-10T11:18:07;27.20;98.00
39503;DHT22;26970;49.900;10.774;2023-06-10T11:26:29;26.30;98.10
39503;DHT22;26970;49.900;10.774;2023-06-10T11:29:03;26.40;96.60
39503;DHT22;26970;49.900;10.774;2023-06-10T11:31:40;26.20;97.60
39503;DHT22;26970;49.900;10.774;2023-06-10T11:34:09;26.20;97.80
39503;DHT22;26970;49.900;10.774;2023-06-10T11:36:40;26.00;97.00
39503;DHT22;26970;49.900;10.774;2023-06-10T11:39:08;26.20;96.70
39503;DHT22;26970;49.900;10.774;2023-06-10T11:41:35;28.00;97.40
39503;DHT22;26970;49.900;10.774;2023-06-10T11:44:02;25.80;97.00
39503;DHT22;26970;49.900;10.774;2023-06-10T11:46:31;26.50;97.30
39503;DHT22;26970;49.900;10.774;2023-06-10T11:48:58;25.50;98.00
39503;DHT22;26970;49.900;10.774;2023-06-10T11:51:38;25.00;97.00
39503;DHT22;26970;49.900;10.774;2023-06-10T11:54:08;26.40;98.30
39503;DHT22;26970;49.900;10.774;2023-06-10T11:56:34;25.70;97.70
39503;DHT22;26970;49.900;10.774;2023-06-10T11:59:05;25.90;98.20
39503;DHT22;26970;49.900;10.774;2023-06-10T12:01:34;25.70;97.50
39503;DHT22;26970;49.900;10.774;2023-06-10T12:04:14;26.10;97.40
39503;DHT22;26970;49.900;10.774;2023-06-10T12:06:52;26.30;97.10
39503;DHT22;26970;49.900;10.774;2023-06-10T12:09:26;25.40;97.40
39503;DHT22;26970;49.900;10.774;2023-06-10T12:12:02;25.50;97.40
39503;DHT22;26970;49.900;10.774;2023-06-10T12:14:57;25.10;97.50
39503;DHT22;26970;49.900;10.774;2023-06-10T12:19:59;25.20;98.30
39503;DHT22;26970;49.900;10.774;2023-06-10T12:22:25;24.70;98.50
39503;DHT22;26970;49.900;10.774;2023-06-10T12:24:59;24.70;98.40
39503;DHT22;26970;49.900;10.774;2023-06-10T12:27:25;26.60;99.50
39503;DHT22;26970;49.900;10.774;2023-06-10T12:29:51;25.90;98.30
39503;DHT22;26970;49.900;10.774;2023-06-10T12:32:34;26.10;98.10
39503;DHT22;26970;49.900;10.774;2023-06-10T12:35:06;27.10;97.90
39503;DHT22;26970;49.900;10.774;2023-06-10T12:37:41;26.80;96.80
39503;DHT22;26970;49.900;10.774;2023-06-10T12:40:09;27.30;96.70
39503;DHT22;26970;49.900;10.774;2023-06-10T12:42:36;27.30;95.90
39503;DHT22;26970;49.900;10.774;2023-06-10T12:45:05;27.30;96.00
39503;DHT22;26970;49.900;10.774;2023-06-10T12:47:37;27.50;96.20
39503;DHT22;26970;49.900;10.774;2023-06-10T12:50:06;27.60;95.60
39503;DHT22;26970;49.900;10.774;2023-06-10T12:52:42;27.30;95.30
39503;DHT22;26970;49.900;10.774;2023-06-10T12:55:25;27.80;96.50
39503;DHT22;26970;49.900;10.774;2023-06-10T12:57:52;27.70;95.40
39503;DHT22;26970;49.900;10.774;2023-06-10T13:00:25;27.50;95.50
39503;DHT22;26970;49.900;10.774;2023-06-10T13:02:56;27.10;96.70
39503;DHT22;26970;49.900;10.774;2023-06-10T13:05:29;26.50;95.80
39503;DHT22;26970;49.900;10.774;2023-06-10T13:07:59;24.80;95.50
39503;DHT22;26970;49.900;10.774;2023-06-10T13:10:27;25.90;97.60
39503;DHT22;26970;49.900;10.774;2023-06-10T13:12:56;26.30;97.70
39503;DHT22;26970;49.900;10.774;2023-06-10T13:15:29;25.80;97.60
39503;DHT22;26970;49.900;10.774;2023-06-10T13:17:55;25.70;99.30
39503;DHT22;26970;49.900;10.774;2023-06-10T13:20:28;26.90;99.90
39503;DHT22;26970;49.900;10.774;2023-06-10T13:22:54;26.40;98.50
39503;DHT22;26970;49.900;10.774;2023-06-10T13:25:23;25.30;99.90
39503;DHT22;26970;49.900;10.774;2023-06-10T13:27:54;23.70;99.90
39503;DHT22;26970;49.900;10.774;2023-06-10T13:30:20;22.70;99.90
39503;DHT22;26970;49.900;10.774;2023-06-10T13:32:46;22.30;99.90
39503;DHT22;26970;49.900;10.774;2023-06-10T13:35:12;22.10;99.90
39503;DHT22;26970;49.900;10.774;2023-06-10T13:37:37;22.00;99.90
39503;DHT22;26970;49.900;10.774;2023-06-10T13:40:03;22.00;99.90
39503;DHT22;26970;49.900;10.774;2023-06-10T13:42:29;22.00;99.90
39503;DHT22;26970;49.900;10.774;2023-06-10T13:45:08;22.30;99.90
39503;DHT22;26970;49.900;10.774;2023-06-10T13:47:34;22.60;99.90
39503;DHT22;26970;49.900;10.774;2023-06-10T13:50:10;22.80;99.90
39503;DHT22;26970;49.900;10.774;2023-06-10T13:52:42;22.80;99.90
39503;DHT22;26970;49.900;10.774;2023-06-10T13:55:08;22.90;99.90
39503;DHT22;26970;49.900;10.774;2023-06-10T13:57:34;22.80;99.90
39503;DHT22;26970;49.900;10.774;2023-06-10T14:00:03;23.10;99.90
39503;DHT22;26970;49.900;10.774;2023-06-10T14:02:40;23.20;99.90
39503;DHT22;26970;49.900;10.774;2023-06-10T14:05:14;23.30;99.90
39503;DHT22;26970;49.900;10.774;2023-06-10T14:07:46;23.60;99.90
39503;DHT22;26970;49.900;10.774;2023-06-10T14:10:21;23.80;99.90
39503;DHT22;26970;49.900;10.774;2023-06-10T14:12:50;24.00;99.90
39503;DHT22;26970;49.900;10.774;2023-06-10T14:15:29;23.90;99.90
39503;DHT22;26970;49.900;10.774;2023-06-10T14:17:58;23.70;99.90
39503;DHT22;26970;49.900;10.774;2023-06-10T14:20:29;23.60;99.90
39503;DHT22;26970;49.900;10.774;2023-06-10T14:22:57;23.30;99.90
39503;DHT22;26970;49.900;10.774;2023-06-10T14:25:23;23.10;99.90
39503;DHT22;26970;49.900;10.774;2023-06-10T14:27:58;22.90;99.90
39503;DHT22;26970;49.900;10.774;2023-06-10T14:30:24;22.90;99.90
39503;DHT22;26970;49.900;10.774;2023-06-10T14:32:50;22.90;99.90
39503;DHT22;26970;49.900;10.774;2023-06-10T14:35:15;22.90;99.90
39503;DHT22;26970;49.900;10.774;2023-06-10T14:37:41;22.80;99.90
39503;DHT22;26970;49.900;10.774;2023-06-10T14:40:07;22.60;99.90
39503;DHT22;26970;49.900;10.774;2023-06-10T14:42:33;22.80;99.90
39503;DHT22;26970;49.900;10.774;2023-06-10T14:44:59;22.70;99.90
39503;DHT22;26970;49.900;10.774;2023-06-10T14:47:29;22.70;99.90
39503;DHT22;26970;49.900;10.774;2023-06-10T14:49:55;22.60;99.90
39503;DHT22;26970;49.900;10.774;2023-06-10T14:52:20;22.60;99.90
39503;DHT22;26970;49.900;10.774;2023-06-10T14:54:46;23.10;99.90
39503;DHT22;26970;49.900;10.774;2023-06-10T14:57:17;23.20;99.90
39503;DHT22;26970;49.900;10.774;2023-06-10T14:59:43;23.20;99.90
39503;DHT22;26970;49.900;10.774;2023-06-10T15:02:08;23.30;99.90
39503;DHT22;26970;49.900;10.774;2023-06-10T15:04:34;23.20;99.90
39503;DHT22;26970;49.900;10.774;2023-06-10T15:07:00;23.30;99.90
39503;DHT22;26970;49.900;10.774;2023-06-10T15:09:26;23.10;99.90
39503;DHT22;26970;49.900;10.774;2023-06-10T15:11:57;23.60;99.90
39503;DHT22;26970;49.900;10.774;2023-06-10T15:14:22;23.80;99.90
39503;DHT22;26970;49.900;10.774;2023-06-10T15:16:58;23.90;99.90
39503;DHT22;26970;49.900;10.774;2023-06-10T15:19:25;24.20;99.90
39503;DHT22;26970;49.900;10.774;2023-06-10T15:21:51;24.30;99.90
39503;DHT22;26970;49.900;10.774;2023-06-10T15:24:17;24.10;99.90
39503;DHT22;26970;49.900;10.774;2023-06-10T15:26:43;24.10;99.90
39503;DHT22;26970;49.900;10.774;2023-06-10T15:29:08;24.10;99.90
39503;DHT22;26970;49.900;10.774;2023-06-10T15:31:40;24.20;99.90
39503;DHT22;26970;49.900;10.774;2023-06-10T15:34:05;24.20;99.90
39503;DHT22;26970;49.900;10.774;2023-06-10T15:36:32;24.20;99.90
39503;DHT22;26970;49.900;10.774;2023-06-10T15:41:52;24.50;99.90
39503;DHT22;26970;49.900;10.774;2023-06-10T15:44:20;24.40;99.90
39503;DHT22;26970;49.900;10.774;2023-06-10T15:46:46;24.40;99.90
39503;DHT22;26970;49.900;10.774;2023-06-10T15:49:11;24.50;99.90
39503;DHT22;26970;49.900;10.774;2023-06-10T15:51:37;24.50;99.90
39503;DHT22;26970;49.900;10.774;2023-06-10T15:54:03;24.50;99.90
39503;DHT22;26970;49.900;10.774;2023-06-10T15:56:36;24.30;99.90
39503;DHT22;26970;49.900;10.774;2023-06-10T15:59:09;24.30;99.90
39503;DHT22;26970;49.900;10.774;2023-06-10T16:01:41;24.40;99.90
39503;DHT22;26970;49.900;10.774;2023-06-10T16:04:14;24.50;99.90
39503;DHT22;26970;49.900;10.774;2023-06-10T16:06:45;24.50;99.90
39503;DHT22;26970;49.900;10.774;2023-06-10T16:09:16;24.50;99.90
39503;DHT22;26970;49.900;10.774;2023-06-10T16:11:42;24.50;99.90
39503;DHT22;26970;49.900;10.774;2023-06-10T16:14:08;24.50;99.90
39503;DHT22;26970;49.900;10.774;2023-06-10T16:16:36;24.40;99.90
39503;DHT22;26970;49.900;10.774;2023-06-10T16:19:11;24.40;99.90